sensor_id;sensor_type;location;lat;lon;timestamp;P1;durP1;ratioP1;P2;durP2;ratioP2
62588;SDS011;58504;48.770;9.148;2023-03-14T00:00:05;3.78;;;1.70;;
62588;SDS011;58504;48.770;9.148;2023-03-14T00:02:35;4.38;;;1.65;;
62588;SDS011;58504;48.770;9.148;2023-03-14T00:05:02;2.85;;;1.90;;
62588;SDS011;58504;48.770;9.148;2023-03-14T00:07:31;2.33;;;1.50;;
62588;SDS011;58504;48.770;9.148;2023-03-14T00:10:00;3.88;;;2.15;;
62588;SDS011;58504;48.770;9.148;2023-03-14T00:12:30;2.28;;;1.88;;
62588;SDS011;58504;48.770;9.148;2023-03-14T00:14:57;4.30;;;1.48;;
62588;SDS011;58504;48.770;9.148;2023-03-14T00:17:25;4.22;;;1.38;;
62588;SDS011;58504;48.770;9.148;2023-03-14T00:19:52;2.85;;;1.98;;
62588;SDS011;58504;48.770;9.148;2023-03-14T00:22:19;2.15;;;1.17;;
62588;SDS011;58504;48.770;9.148;2023-03-14T00:24:46;2.25;;;1.48;;
62588;SDS011;58504;48.770;9.148;2023-03-14T00:27:13;1.13;;;1.00;;
62588;SDS011;58504;48.770;9.148;2023-03-14T00:29:41;1.45;;;0.93;;
62588;SDS011;58504;48.770;9.148;2023-03-14T00:32:09;4.00;;;1.63;;
62588;SDS011;58504;48.770;9.148;2023-03-14T00:34:36;2.30;;;1.00;;
62588;SDS011;58504;48.770;9.148;2023-03-14T00:37:03;1.25;;;0.98;;
62588;SDS011;58504;48.770;9.148;2023-03-14T00:39:30;0.77;;;0.77;;
62588;SDS011;58504;48.770;9.148;2023-03-14T00:41:56;1.73;;;1.10;;
62588;SDS011;58504;48.770;9.148;2023-03-14T00:44:23;3.28;;;1.38;;
62588;SDS011;58504;48.770;9.148;2023-03-14T00:46:51;1.20;;;0.80;;
62588;SDS011;58504;48.770;9.148;2023-03-14T00:49:18;2.80;;;1.13;;
62588;SDS011;58504;48.770;9.148;2023-03-14T00:51:45;1.38;;;0.65;;
62588;SDS011;58504;48.770;9.148;2023-03-14T00:54:12;2.45;;;0.80;;
62588;SDS011;58504;48.770;9.148;2023-03-14T00:56:38;5.43;;;0.70;;
62588;SDS011;58504;48.770;9.148;2023-03-14T00:59:05;3.72;;;0.88;;
62588;SDS011;58504;48.770;9.148;2023-03-14T01:01:32;3.33;;;0.68;;
62588;SDS011;58504;48.770;9.148;2023-03-14T01:04:00;0.75;;;0.70;;
62588;SDS011;58504;48.770;9.148;2023-03-14T01:06:27;2.50;;;0.65;;
62588;SDS011;58504;48.770;9.148;2023-03-14T01:08:55;1.35;;;0.68;;
62588;SDS011;58504;48.770;9.148;2023-03-14T01:11:23;2.17;;;0.60;;
62588;SDS011;58504;48.770;9.148;2023-03-14T01:13:51;1.30;;;0.70;;
62588;SDS011;58504;48.770;9.148;2023-03-14T01:16:20;1.25;;;0.70;;
62588;SDS011;58504;48.770;9.148;2023-03-14T01:18:48;1.27;;;0.80;;
62588;SDS011;58504;48.770;9.148;2023-03-14T01:21:17;0.60;;;0.60;;
62588;SDS011;58504;48.770;9.148;2023-03-14T01:23:45;2.22;;;0.68;;
62588;SDS011;58504;48.770;9.148;2023-03-14T01:26:14;1.38;;;0.80;;
62588;SDS011;58504;48.770;9.148;2023-03-14T01:28:44;1.02;;;0.55;;
62588;SDS011;58504;48.770;9.148;2023-03-14T01:31:11;2.05;;;1.15;;
62588;SDS011;58504;48.770;9.148;2023-03-14T01:33:38;0.77;;;0.52;;
62588;SDS011;58504;48.770;9.148;2023-03-14T01:36:06;1.98;;;0.88;;
62588;SDS011;58504;48.770;9.148;2023-03-14T01:38:36;0.75;;;0.55;;
62588;SDS011;58504;48.770;9.148;2023-03-14T01:41:05;1.17;;;0.40;;
62588;SDS011;58504;48.770;9.148;2023-03-14T01:43:32;0.65;;;0.52;;
62588;SDS011;58504;48.770;9.148;2023-03-14T01:48:53;1.27;;;0.90;;
62588;SDS011;58504;48.770;9.148;2023-03-14T01:51:25;0.47;;;0.47;;
62588;SDS011;58504;48.770;9.148;2023-03-14T01:53:59;1.55;;;0.55;;
62588;SDS011;58504;48.770;9.148;2023-03-14T01:56:31;0.57;;;0.30;;
62588;SDS011;58504;48.770;9.148;2023-03-14T01:58:58;0.52;;;0.52;;
62588;SDS011;58504;48.770;9.148;2023-03-14T02:01:26;2.20;;;0.40;;
62588;SDS011;58504;48.770;9.148;2023-03-14T02:03:55;0.40;;;0.40;;
62588;SDS011;58504;48.770;9.148;2023-03-14T02:06:24;0.40;;;0.40;;
62588;SDS011;58504;48.770;9.148;2023-03-14T02:08:55;0.88;;;0.50;;
62588;SDS011;58504;48.770;9.148;2023-03-14T02:11:23;0.60;;;0.38;;
62588;SDS011;58504;48.770;9.148;2023-03-14T02:13:54;1.27;;;0.52;;
62588;SDS011;58504;48.770;9.148;2023-03-14T02:16:22;0.57;;;0.57;;
62588;SDS011;58504;48.770;9.148;2023-03-14T02:18:49;0.88;;;0.50;;
62588;SDS011;58504;48.770;9.148;2023-03-14T02:21:16;2.35;;;0.68;;
62588;SDS011;58504;48.770;9.148;2023-03-14T02:23:51;0.52;;;0.40;;
62588;SDS011;58504;48.770;9.148;2023-03-14T02:26:27;2.58;;;0.40;;
62588;SDS011;58504;48.770;9.148;2023-03-14T02:28:59;0.63;;;0.47;;
62588;SDS011;58504;48.770;9.148;2023-03-14T02:31:25;0.98;;;0.50;;
62588;SDS011;58504;48.770;9.148;2023-03-14T02:33:52;1.10;;;0.63;;
62588;SDS011;58504;48.770;9.148;2023-03-14T02:36:20;2.00;;;0.68;;
62588;SDS011;58504;48.770;9.148;2023-03-14T02:38:50;0.40;;;0.30;;
62588;SDS011;58504;48.770;9.148;2023-03-14T02:41:21;0.50;;;0.50;;
62588;SDS011;58504;48.770;9.148;2023-03-14T02:43:48;0.70;;;0.57;;
62588;SDS011;58504;48.770;9.148;2023-03-14T02:46:17;0.80;;;0.30;;
62588;SDS011;58504;48.770;9.148;2023-03-14T02:48:46;1.17;;;0.60;;
62588;SDS011;58504;48.770;9.148;2023-03-14T02:51:16;0.55;;;0.55;;
62588;SDS011;58504;48.770;9.148;2023-03-14T02:53:43;1.00;;;0.43;;
62588;SDS011;58504;48.770;9.148;2023-03-14T02:56:10;0.20;;;0.20;;
62588;SDS011;58504;48.770;9.148;2023-03-14T02:58:37;0.20;;;0.20;;
62588;SDS011;58504;48.770;9.148;2023-03-14T03:01:04;0.40;;;0.40;;
62588;SDS011;58504;48.770;9.148;2023-03-14T03:03:33;0.73;;;0.63;;
62588;SDS011;58504;48.770;9.148;2023-03-14T03:06:00;0.98;;;0.70;;
62588;SDS011;58504;48.770;9.148;2023-03-14T03:08:27;0.50;;;0.50;;
62588;SDS011;58504;48.770;9.148;2023-03-14T03:10:54;0.57;;;0.57;;
62588;SDS011;58504;48.770;9.148;2023-03-14T03:13:22;0.45;;;0.45;;
62588;SDS011;58504;48.770;9.148;2023-03-14T03:15:49;0.98;;;0.60;;
62588;SDS011;58504;48.770;9.148;2023-03-14T03:18:15;2.75;;;1.13;;
62588;SDS011;58504;48.770;9.148;2023-03-14T03:20:43;0.80;;;0.57;;
62588;SDS011;58504;48.770;9.148;2023-03-14T03:23:10;0.75;;;0.55;;
62588;SDS011;58504;48.770;9.148;2023-03-14T03:25:37;1.10;;;0.80;;
62588;SDS011;58504;48.770;9.148;2023-03-14T03:28:04;0.52;;;0.40;;
62588;SDS011;58504;48.770;9.148;2023-03-14T03:30:33;0.80;;;0.25;;
62588;SDS011;58504;48.770;9.148;2023-03-14T03:33:00;0.75;;;0.50;;
62588;SDS011;58504;48.770;9.148;2023-03-14T03:35:27;0.20;;;0.20;;
62588;SDS011;58504;48.770;9.148;2023-03-14T03:37:55;0.45;;;0.30;;
62588;SDS011;58504;48.770;9.148;2023-03-14T03:40:21;0.40;;;0.40;;
62588;SDS011;58504;48.770;9.148;2023-03-14T03:42:48;0.28;;;0.28;;
62588;SDS011;58504;48.770;9.148;2023-03-14T03:45:15;0.73;;;0.47;;
62588;SDS011;58504;48.770;9.148;2023-03-14T03:47:42;0.80;;;0.50;;
62588;SDS011;58504;48.770;9.148;2023-03-14T03:50:09;0.70;;;0.50;;
62588;SDS011;58504;48.770;9.148;2023-03-14T03:52:36;0.30;;;0.30;;
62588;SDS011;58504;48.770;9.148;2023-03-14T03:55:04;1.00;;;0.45;;
62588;SDS011;58504;48.770;9.148;2023-03-14T03:57:32;0.93;;;0.20;;
62588;SDS011;58504;48.770;9.148;2023-03-14T03:59:58;0.60;;;0.35;;
62588;SDS011;58504;48.770;9.148;2023-03-14T04:02:25;0.35;;;0.35;;
62588;SDS011;58504;48.770;9.148;2023-03-14T04:04:52;0.63;;;0.35;;
62588;SDS011;58504;48.770;9.148;2023-03-14T04:07:19;0.50;;;0.50;;
62588;SDS011;58504;48.770;9.148;2023-03-14T04:09:45;0.40;;;0.32;;
62588;SDS011;58504;48.770;9.148;2023-03-14T04:12:13;0.52;;;0.50;;
62588;SDS011;58504;48.770;9.148;2023-03-14T04:14:40;0.20;;;0.20;;
62588;SDS011;58504;48.770;9.148;2023-03-14T04:17:07;0.50;;;0.30;;
62588;SDS011;58504;48.770;9.148;2023-03-14T04:19:34;0.88;;;0.60;;
62588;SDS011;58504;48.770;9.148;2023-03-14T04:22:00;0.40;;;0.40;;
62588;SDS011;58504;48.770;9.148;2023-03-14T04:24:27;0.25;;;0.15;;
62588;SDS011;58504;48.770;9.148;2023-03-14T04:26:54;0.30;;;0.30;;
62588;SDS011;58504;48.770;9.148;2023-03-14T04:29:22;0.20;;;0.17;;
62588;SDS011;58504;48.770;9.148;2023-03-14T04:31:49;0.50;;;0.47;;
62588;SDS011;58504;48.770;9.148;2023-03-14T04:34:16;0.30;;;0.30;;
62588;SDS011;58504;48.770;9.148;2023-03-14T04:36:42;0.73;;;0.30;;
62588;SDS011;58504;48.770;9.148;2023-03-14T04:39:09;0.73;;;0.32;;
62588;SDS011;58504;48.770;9.148;2023-03-14T04:41:36;0.13;;;0.13;;
62588;SDS011;58504;48.770;9.148;2023-03-14T04:44:03;0.20;;;0.20;;
62588;SDS011;58504;48.770;9.148;2023-03-14T04:46:31;0.43;;;0.40;;
62588;SDS011;58504;48.770;9.148;2023-03-14T04:48:57;0.57;;;0.57;;
62588;SDS011;58504;48.770;9.148;2023-03-14T04:51:24;0.32;;;0.20;;
62588;SDS011;58504;48.770;9.148;2023-03-14T04:53:52;0.45;;;0.38;;
62588;SDS011;58504;48.770;9.148;2023-03-14T04:56:19;0.40;;;0.28;;
62588;SDS011;58504;48.770;9.148;2023-03-14T04:58:46;0.45;;;0.45;;
62588;SDS011;58504;48.770;9.148;2023-03-14T05:01:13;0.40;;;0.40;;
62588;SDS011;58504;48.770;9.148;2023-03-14T05:03:41;1.45;;;0.38;;
62588;SDS011;58504;48.770;9.148;2023-03-14T05:06:08;0.30;;;0.30;;
62588;SDS011;58504;48.770;9.148;2023-03-14T05:08:35;0.25;;;0.22;;
62588;SDS011;58504;48.770;9.148;2023-03-14T05:11:02;0.30;;;0.22;;
62588;SDS011;58504;48.770;9.148;2023-03-14T05:13:29;1.08;;;0.30;;
62588;SDS011;58504;48.770;9.148;2023-03-14T05:16:02;0.20;;;0.20;;
62588;SDS011;58504;48.770;9.148;2023-03-14T05:18:30;2.05;;;0.57;;
62588;SDS011;58504;48.770;9.148;2023-03-14T05:20:58;1.45;;;0.10;;
62588;SDS011;58504;48.770;9.148;2023-03-14T05:23:25;0.32;;;0.20;;
62588;SDS011;58504;48.770;9.148;2023-03-14T05:25:54;0.30;;;0.30;;
62588;SDS011;58504;48.770;9.148;2023-03-14T05:28:20;0.75;;;0.38;;
62588;SDS011;58504;48.770;9.148;2023-03-14T05:30:47;0.30;;;0.20;;
62588;SDS011;58504;48.770;9.148;2023-03-14T05:33:14;1.38;;;0.38;;
62588;SDS011;58504;48.770;9.148;2023-03-14T05:35:41;0.30;;;0.30;;
62588;SDS011;58504;48.770;9.148;2023-03-14T05:38:10;0.30;;;0.30;;
62588;SDS011;58504;48.770;9.148;2023-03-14T05:40:36;0.10;;;0.10;;
62588;SDS011;58504;48.770;9.148;2023-03-14T05:43:03;0.25;;;0.22;;
62588;SDS011;58504;48.770;9.148;2023-03-14T05:45:32;0.55;;;0.20;;
62588;SDS011;58504;48.770;9.148;2023-03-14T05:47:59;0.10;;;0.10;;
62588;SDS011;58504;48.770;9.148;2023-03-14T05:50:26;0.43;;;0.32;;
62588;SDS011;58504;48.770;9.148;2023-03-14T05:52:53;0.30;;;0.30;;
62588;SDS011;58504;48.770;9.148;2023-03-14T05:55:21;2.08;;;0.65;;
62588;SDS011;58504;48.770;9.148;2023-03-14T05:57:48;0.40;;;0.40;;
62588;SDS011;58504;48.770;9.148;2023-03-14T06:00:15;0.55;;;0.35;;
62588;SDS011;58504;48.770;9.148;2023-03-14T06:02:45;0.10;;;0.05;;
62588;SDS011;58504;48.770;9.148;2023-03-14T06:05:11;0.20;;;0.10;;
62588;SDS011;58504;48.770;9.148;2023-03-14T06:07:38;0.60;;;0.30;;
62588;SDS011;58504;48.770;9.148;2023-03-14T06:10:05;0.30;;;0.30;;
62588;SDS011;58504;48.770;9.148;2023-03-14T06:12:34;0.45;;;0.30;;
62588;SDS011;58504;48.770;9.148;2023-03-14T06:15:01;0.30;;;0.30;;
62588;SDS011;58504;48.770;9.148;2023-03-14T06:17:27;0.20;;;0.20;;
62588;SDS011;58504;48.770;9.148;2023-03-14T06:19:54;1.30;;;0.30;;
62588;SDS011;58504;48.770;9.148;2023-03-14T06:22:21;0.40;;;0.32;;
62588;SDS011;58504;48.770;9.148;2023-03-14T06:24:48;0.65;;;0.35;;
62588;SDS011;58504;48.770;9.148;2023-03-14T06:27:14;0.30;;;0.30;;
62588;SDS011;58504;48.770;9.148;2023-03-14T06:29:43;0.20;;;0.20;;
62588;SDS011;58504;48.770;9.148;2023-03-14T06:32:09;0.30;;;0.30;;
62588;SDS011;58504;48.770;9.148;2023-03-14T06:34:36;0.45;;;0.20;;
62588;SDS011;58504;48.770;9.148;2023-03-14T06:37:03;0.20;;;0.15;;
62588;SDS011;58504;48.770;9.148;2023-03-14T06:39:30;1.50;;;0.63;;
62588;SDS011;58504;48.770;9.148;2023-03-14T06:41:57;3.00;;;1.13;;
62588;SDS011;58504;48.770;9.148;2023-03-14T06:44:24;0.45;;;0.38;;
62588;SDS011;58504;48.770;9.148;2023-03-14T06:46:52;1.58;;;0.90;;
62588;SDS011;58504;48.770;9.148;2023-03-14T06:49:19;2.05;;;0.70;;
62588;SDS011;58504;48.770;9.148;2023-03-14T06:51:45;0.63;;;0.52;;
62588;SDS011;58504;48.770;9.148;2023-03-14T06:54:12;3.40;;;0.43;;
62588;SDS011;58504;48.770;9.148;2023-03-14T06:56:39;1.75;;;0.45;;
62588;SDS011;58504;48.770;9.148;2023-03-14T06:59:06;1.67;;;0.75;;
62588;SDS011;58504;48.770;9.148;2023-03-14T07:01:32;1.70;;;0.40;;
62588;SDS011;58504;48.770;9.148;2023-03-14T07:04:01;3.90;;;0.63;;
62588;SDS011;58504;48.770;9.148;2023-03-14T07:06:28;0.35;;;0.32;;
62588;SDS011;58504;48.770;9.148;2023-03-14T07:08:55;2.60;;;0.60;;
62588;SDS011;58504;48.770;9.148;2023-03-14T07:11:22;0.98;;;0.52;;
62588;SDS011;58504;48.770;9.148;2023-03-14T07:13:49;2.35;;;0.80;;
62588;SDS011;58504;48.770;9.148;2023-03-14T07:16:16;0.98;;;0.60;;
62588;SDS011;58504;48.770;9.148;2023-03-14T07:18:43;0.75;;;0.50;;
62588;SDS011;58504;48.770;9.148;2023-03-14T07:21:11;1.90;;;0.68;;
62588;SDS011;58504;48.770;9.148;2023-03-14T07:23:38;1.50;;;0.75;;
62588;SDS011;58504;48.770;9.148;2023-03-14T07:26:05;0.93;;;0.80;;
62588;SDS011;58504;48.770;9.148;2023-03-14T07:28:32;2.35;;;0.80;;
62588;SDS011;58504;48.770;9.148;2023-03-14T07:30:59;2.63;;;0.63;;
62588;SDS011;58504;48.770;9.148;2023-03-14T07:33:26;6.32;;;1.27;;
62588;SDS011;58504;48.770;9.148;2023-03-14T07:35:52;1.25;;;0.68;;
62588;SDS011;58504;48.770;9.148;2023-03-14T07:38:20;3.10;;;0.60;;
62588;SDS011;58504;48.770;9.148;2023-03-14T07:40:47;1.33;;;0.60;;
62588;SDS011;58504;48.770;9.148;2023-03-14T07:43:14;1.45;;;0.70;;
62588;SDS011;58504;48.770;9.148;2023-03-14T07:45:41;3.42;;;0.70;;
62588;SDS011;58504;48.770;9.148;2023-03-14T07:48:11;2.13;;;0.60;;
62588;SDS011;58504;48.770;9.148;2023-03-14T07:50:37;1.05;;;0.55;;
62588;SDS011;58504;48.770;9.148;2023-03-14T07:53:04;3.90;;;0.77;;
62588;SDS011;58504;48.770;9.148;2023-03-14T07:55:32;1.75;;;0.50;;
62588;SDS011;58504;48.770;9.148;2023-03-14T07:57:59;0.95;;;0.50;;
62588;SDS011;58504;48.770;9.148;2023-03-14T08:00:26;3.83;;;0.70;;
62588;SDS011;58504;48.770;9.148;2023-03-14T08:02:53;12.18;;;0.90;;
62588;SDS011;58504;48.770;9.148;2023-03-14T08:05:20;9.98;;;0.98;;
62588;SDS011;58504;48.770;9.148;2023-03-14T08:07:47;1.38;;;0.60;;
62588;SDS011;58504;48.770;9.148;2023-03-14T08:10:14;2.15;;;0.68;;
62588;SDS011;58504;48.770;9.148;2023-03-14T08:12:48;0.98;;;0.75;;
62588;SDS011;58504;48.770;9.148;2023-03-14T08:15:15;0.35;;;0.35;;
62588;SDS011;58504;48.770;9.148;2023-03-14T08:17:42;2.40;;;0.85;;
62588;SDS011;58504;48.770;9.148;2023-03-14T08:20:09;1.48;;;0.60;;
62588;SDS011;58504;48.770;9.148;2023-03-14T08:22:38;1.65;;;0.60;;
62588;SDS011;58504;48.770;9.148;2023-03-14T08:25:05;1.35;;;0.60;;
62588;SDS011;58504;48.770;9.148;2023-03-14T08:27:32;2.05;;;0.43;;
62588;SDS011;58504;48.770;9.148;2023-03-14T08:30:00;1.17;;;0.73;;
62588;SDS011;58504;48.770;9.148;2023-03-14T08:32:27;0.70;;;0.70;;
62588;SDS011;58504;48.770;9.148;2023-03-14T08:34:54;0.40;;;0.40;;
62588;SDS011;58504;48.770;9.148;2023-03-14T08:37:20;0.47;;;0.38;;
62588;SDS011;58504;48.770;9.148;2023-03-14T08:39:47;9.52;;;0.80;;
62588;SDS011;58504;48.770;9.148;2023-03-14T08:42:14;5.00;;;0.63;;
62588;SDS011;58504;48.770;9.148;2023-03-14T08:44:40;0.50;;;0.38;;
62588;SDS011;58504;48.770;9.148;2023-03-14T08:47:09;0.75;;;0.75;;
62588;SDS011;58504;48.770;9.148;2023-03-14T08:49:35;0.52;;;0.52;;
62588;SDS011;58504;48.770;9.148;2023-03-14T08:52:02;1.58;;;0.50;;
62588;SDS011;58504;48.770;9.148;2023-03-14T08:54:29;3.03;;;0.57;;
62588;SDS011;58504;48.770;9.148;2023-03-14T08:56:56;1.08;;;0.30;;
62588;SDS011;58504;48.770;9.148;2023-03-14T08:59:23;1.85;;;0.57;;
62588;SDS011;58504;48.770;9.148;2023-03-14T09:01:50;1.42;;;0.68;;
62588;SDS011;58504;48.770;9.148;2023-03-14T09:04:18;1.13;;;0.30;;
62588;SDS011;58504;48.770;9.148;2023-03-14T09:06:45;2.78;;;0.40;;
62588;SDS011;58504;48.770;9.148;2023-03-14T09:09:11;1.25;;;0.60;;
62588;SDS011;58504;48.770;9.148;2023-03-14T09:11:38;0.60;;;0.40;;
62588;SDS011;58504;48.770;9.148;2023-03-14T09:14:05;3.50;;;0.98;;
62588;SDS011;58504;48.770;9.148;2023-03-14T09:16:32;1.17;;;0.40;;
62588;SDS011;58504;48.770;9.148;2023-03-14T09:18:59;0.70;;;0.52;;
62588;SDS011;58504;48.770;9.148;2023-03-14T09:21:28;0.93;;;0.40;;
62588;SDS011;58504;48.770;9.148;2023-03-14T09:23:54;1.50;;;0.45;;
62588;SDS011;58504;48.770;9.148;2023-03-14T09:26:21;0.60;;;0.52;;
62588;SDS011;58504;48.770;9.148;2023-03-14T09:28:48;1.65;;;0.70;;
62588;SDS011;58504;48.770;9.148;2023-03-14T09:31:15;1.08;;;0.40;;
62588;SDS011;58504;48.770;9.148;2023-03-14T09:33:41;1.60;;;0.50;;
62588;SDS011;58504;48.770;9.148;2023-03-14T09:36:09;0.75;;;0.30;;
62588;SDS011;58504;48.770;9.148;2023-03-14T09:38:38;1.02;;;0.50;;
62588;SDS011;58504;48.770;9.148;2023-03-14T09:41:10;4.68;;;0.45;;
62588;SDS011;58504;48.770;9.148;2023-03-14T09:43:40;0.77;;;0.55;;
62588;SDS011;58504;48.770;9.148;2023-03-14T09:46:09;0.40;;;0.40;;
62588;SDS011;58504;48.770;9.148;2023-03-14T09:48:37;0.13;;;0.13;;
62588;SDS011;58504;48.770;9.148;2023-03-14T09:51:06;0.40;;;0.40;;
62588;SDS011;58504;48.770;9.148;2023-03-14T09:53:42;0.47;;;0.35;;
62588;SDS011;58504;48.770;9.148;2023-03-14T09:56:11;0.20;;;0.20;;
62588;SDS011;58504;48.770;9.148;2023-03-14T09:58:40;0.65;;;0.47;;
62588;SDS011;58504;48.770;9.148;2023-03-14T10:01:10;1.98;;;0.50;;
62588;SDS011;58504;48.770;9.148;2023-03-14T10:03:41;0.30;;;0.30;;
62588;SDS011;58504;48.770;9.148;2023-03-14T10:06:11;0.40;;;0.30;;
62588;SDS011;58504;48.770;9.148;2023-03-14T10:08:41;0.47;;;0.40;;
62588;SDS011;58504;48.770;9.148;2023-03-14T10:11:11;0.22;;;0.20;;
62588;SDS011;58504;48.770;9.148;2023-03-14T10:13:47;0.38;;;0.38;;
62588;SDS011;58504;48.770;9.148;2023-03-14T10:16:15;0.47;;;0.10;;
62588;SDS011;58504;48.770;9.148;2023-03-14T10:18:44;0.88;;;0.47;;
62588;SDS011;58504;48.770;9.148;2023-03-14T10:21:17;1.75;;;0.30;;
62588;SDS011;58504;48.770;9.148;2023-03-14T10:23:48;0.30;;;0.30;;
62588;SDS011;58504;48.770;9.148;2023-03-14T10:26:16;0.10;;;0.10;;
62588;SDS011;58504;48.770;9.148;2023-03-14T10:28:44;0.20;;;0.20;;
62588;SDS011;58504;48.770;9.148;2023-03-14T10:31:13;0.50;;;0.22;;
62588;SDS011;58504;48.770;9.148;2023-03-14T10:33:40;0.52;;;0.25;;
62588;SDS011;58504;48.770;9.148;2023-03-14T10:36:15;1.17;;;0.32;;
62588;SDS011;58504;48.770;9.148;2023-03-14T10:38:45;0.73;;;0.50;;
62588;SDS011;58504;48.770;9.148;2023-03-14T10:41:15;0.43;;;0.20;;
62588;SDS011;58504;48.770;9.148;2023-03-14T10:43:44;0.15;;;0.15;;
62588;SDS011;58504;48.770;9.148;2023-03-14T10:46:15;0.10;;;0.10;;
62588;SDS011;58504;48.770;9.148;2023-03-14T10:48:44;1.13;;;0.47;;
62588;SDS011;58504;48.770;9.148;2023-03-14T10:51:13;0.82;;;0.50;;
62588;SDS011;58504;48.770;9.148;2023-03-14T10:53:46;0.40;;;0.38;;
62588;SDS011;58504;48.770;9.148;2023-03-14T10:56:17;1.52;;;0.40;;
62588;SDS011;58504;48.770;9.148;2023-03-14T10:58:46;1.23;;;0.45;;
62588;SDS011;58504;48.770;9.148;2023-03-14T11:01:21;0.35;;;0.22;;
62588;SDS011;58504;48.770;9.148;2023-03-14T11:04:01;0.38;;;0.38;;
62588;SDS011;58504;48.770;9.148;2023-03-14T11:06:36;0.50;;;0.50;;
62588;SDS011;58504;48.770;9.148;2023-03-14T11:09:10;0.35;;;0.32;;
62588;SDS011;58504;48.770;9.148;2023-03-14T11:11:44;0.40;;;0.40;;
62588;SDS011;58504;48.770;9.148;2023-03-14T11:14:15;0.40;;;0.35;;
62588;SDS011;58504;48.770;9.148;2023-03-14T11:16:52;0.30;;;0.30;;
62588;SDS011;58504;48.770;9.148;2023-03-14T11:22:20;0.55;;;0.30;;
62588;SDS011;58504;48.770;9.148;2023-03-14T11:24:58;0.65;;;0.30;;
62588;SDS011;58504;48.770;9.148;2023-03-14T11:27:38;0.20;;;0.20;;
62588;SDS011;58504;48.770;9.148;2023-03-14T11:30:17;0.98;;;0.15;;
62588;SDS011;58504;48.770;9.148;2023-03-14T11:32:49;0.30;;;0.30;;
62588;SDS011;58504;48.770;9.148;2023-03-14T11:35:24;0.55;;;0.50;;
62588;SDS011;58504;48.770;9.148;2023-03-14T11:37:55;1.40;;;0.30;;
62588;SDS011;58504;48.770;9.148;2023-03-14T11:40:26;2.88;;;0.82;;
62588;SDS011;58504;48.770;9.148;2023-03-14T11:42:56;0.40;;;0.40;;
62588;SDS011;58504;48.770;9.148;2023-03-14T11:45:32;0.70;;;0.40;;
62588;SDS011;58504;48.770;9.148;2023-03-14T11:50:54;0.95;;;0.38;;
62588;SDS011;58504;48.770;9.148;2023-03-14T11:53:29;2.33;;;0.40;;
62588;SDS011;58504;48.770;9.148;2023-03-14T11:56:03;0.28;;;0.28;;
62588;SDS011;58504;48.770;9.148;2023-03-14T11:58:33;0.82;;;0.40;;
62588;SDS011;58504;48.770;9.148;2023-03-14T12:01:04;0.67;;;0.10;;
62588;SDS011;58504;48.770;9.148;2023-03-14T12:03:36;0.75;;;0.75;;
62588;SDS011;58504;48.770;9.148;2023-03-14T12:06:09;0.30;;;0.30;;
62588;SDS011;58504;48.770;9.148;2023-03-14T12:08:45;0.20;;;0.20;;
62588;SDS011;58504;48.770;9.148;2023-03-14T12:11:19;0.40;;;0.40;;
62588;SDS011;58504;48.770;9.148;2023-03-14T12:13:52;0.30;;;0.30;;
62588;SDS011;58504;48.770;9.148;2023-03-14T12:16:25;0.15;;;0.15;;
62588;SDS011;58504;48.770;9.148;2023-03-14T12:18:56;5.78;;;0.40;;
62588;SDS011;58504;48.770;9.148;2023-03-14T12:21:24;5.78;;;0.35;;
62588;SDS011;58504;48.770;9.148;2023-03-14T12:24:16;0.10;;;0.10;;
62588;SDS011;58504;48.770;9.148;2023-03-14T12:29:19;0.43;;;0.43;;
62588;SDS011;58504;48.770;9.148;2023-03-14T12:31:47;0.68;;;0.38;;
62588;SDS011;58504;48.770;9.148;2023-03-14T12:34:30;0.50;;;0.30;;
62588;SDS011;58504;48.770;9.148;2023-03-14T12:39:35;0.98;;;0.50;;
62588;SDS011;58504;48.770;9.148;2023-03-14T12:42:10;0.10;;;0.10;;
62588;SDS011;58504;48.770;9.148;2023-03-14T12:44:41;1.08;;;0.52;;
62588;SDS011;58504;48.770;9.148;2023-03-14T12:50:19;0.57;;;0.20;;
62588;SDS011;58504;48.770;9.148;2023-03-14T12:56:02;0.70;;;0.40;;
62588;SDS011;58504;48.770;9.148;2023-03-14T12:58:38;0.60;;;0.32;;
62588;SDS011;58504;48.770;9.148;2023-03-14T13:01:15;0.30;;;0.30;;
62588;SDS011;58504;48.770;9.148;2023-03-14T13:03:45;0.00;;;0.00;;
62588;SDS011;58504;48.770;9.148;2023-03-14T13:06:13;0.90;;;0.45;;
62588;SDS011;58504;48.770;9.148;2023-03-14T13:12:16;0.10;;;0.10;;
62588;SDS011;58504;48.770;9.148;2023-03-14T13:14:44;1.75;;;0.25;;
62588;SDS011;58504;48.770;9.148;2023-03-14T13:17:15;0.32;;;0.20;;
62588;SDS011;58504;48.770;9.148;2023-03-14T13:22:17;0.20;;;0.20;;
62588;SDS011;58504;48.770;9.148;2023-03-14T13:24:48;1.97;;;0.43;;
62588;SDS011;58504;48.770;9.148;2023-03-14T13:27:16;0.28;;;0.20;;
62588;SDS011;58504;48.770;9.148;2023-03-14T13:29:44;0.35;;;0.35;;
62588;SDS011;58504;48.770;9.148;2023-03-14T13:32:15;0.95;;;0.57;;
62588;SDS011;58504;48.770;9.148;2023-03-14T13:34:46;0.75;;;0.40;;
62588;SDS011;58504;48.770;9.148;2023-03-14T13:37:15;0.63;;;0.40;;
62588;SDS011;58504;48.770;9.148;2023-03-14T13:39:42;0.40;;;0.40;;
62588;SDS011;58504;48.770;9.148;2023-03-14T13:42:15;0.50;;;0.47;;
62588;SDS011;58504;48.770;9.148;2023-03-14T13:44:42;0.30;;;0.30;;
62588;SDS011;58504;48.770;9.148;2023-03-14T13:47:11;0.30;;;0.25;;
62588;SDS011;58504;48.770;9.148;2023-03-14T13:49:42;0.60;;;0.40;;
62588;SDS011;58504;48.770;9.148;2023-03-14T13:52:23;0.65;;;0.38;;
62588;SDS011;58504;48.770;9.148;2023-03-14T13:54:54;0.50;;;0.30;;
62588;SDS011;58504;48.770;9.148;2023-03-14T13:57:21;1.98;;;0.30;;
62588;SDS011;58504;48.770;9.148;2023-03-14T13:59:57;3.53;;;0.50;;
62588;SDS011;58504;48.770;9.148;2023-03-14T14:02:26;0.40;;;0.40;;
62588;SDS011;58504;48.770;9.148;2023-03-14T14:04:55;1.02;;;0.40;;
62588;SDS011;58504;48.770;9.148;2023-03-14T14:07:22;0.30;;;0.30;;
62588;SDS011;58504;48.770;9.148;2023-03-14T14:09:50;0.30;;;0.30;;
62588;SDS011;58504;48.770;9.148;2023-03-14T14:12:19;0.30;;;0.30;;
62588;SDS011;58504;48.770;9.148;2023-03-14T14:14:53;0.25;;;0.25;;
62588;SDS011;58504;48.770;9.148;2023-03-14T14:17:24;0.35;;;0.35;;
62588;SDS011;58504;48.770;9.148;2023-03-14T14:19:57;0.32;;;0.32;;
62588;SDS011;58504;48.770;9.148;2023-03-14T14:22:25;1.33;;;0.22;;
62588;SDS011;58504;48.770;9.148;2023-03-14T14:24:53;0.10;;;0.10;;
62588;SDS011;58504;48.770;9.148;2023-03-14T14:27:23;0.25;;;0.20;;
62588;SDS011;58504;48.770;9.148;2023-03-14T14:29:58;0.40;;;0.15;;
62588;SDS011;58504;48.770;9.148;2023-03-14T14:32:27;0.40;;;0.32;;
62588;SDS011;58504;48.770;9.148;2023-03-14T14:35:02;1.17;;;0.35;;
62588;SDS011;58504;48.770;9.148;2023-03-14T14:37:31;0.30;;;0.20;;
62588;SDS011;58504;48.770;9.148;2023-03-14T14:40:01;0.73;;;0.43;;
62588;SDS011;58504;48.770;9.148;2023-03-14T14:42:35;0.45;;;0.40;;
62588;SDS011;58504;48.770;9.148;2023-03-14T14:45:09;0.17;;;0.17;;
62588;SDS011;58504;48.770;9.148;2023-03-14T14:47:47;1.02;;;0.30;;
62588;SDS011;58504;48.770;9.148;2023-03-14T14:50:25;0.80;;;0.20;;
62588;SDS011;58504;48.770;9.148;2023-03-14T14:52:56;0.25;;;0.20;;
62588;SDS011;58504;48.770;9.148;2023-03-14T14:55:28;1.30;;;0.30;;
62588;SDS011;58504;48.770;9.148;2023-03-14T14:57:57;0.68;;;0.68;;
62588;SDS011;58504;48.770;9.148;2023-03-14T15:00:24;0.52;;;0.47;;
62588;SDS011;58504;48.770;9.148;2023-03-14T15:02:53;0.20;;;0.20;;
62588;SDS011;58504;48.770;9.148;2023-03-14T15:05:23;0.28;;;0.28;;
62588;SDS011;58504;48.770;9.148;2023-03-14T15:07:51;0.40;;;0.38;;
62588;SDS011;58504;48.770;9.148;2023-03-14T15:10:19;0.40;;;0.40;;
62588;SDS011;58504;48.770;9.148;2023-03-14T15:12:47;0.63;;;0.30;;
62588;SDS011;58504;48.770;9.148;2023-03-14T15:15:14;0.30;;;0.20;;
62588;SDS011;58504;48.770;9.148;2023-03-14T15:17:42;1.85;;;0.63;;
62588;SDS011;58504;48.770;9.148;2023-03-14T15:20:10;0.30;;;0.30;;
62588;SDS011;58504;48.770;9.148;2023-03-14T15:22:40;1.52;;;0.43;;